createdAt,value
2022-10-04T00:01:47.630Z,102381.03
2022-10-04T00:06:58.226Z,102387.06
2022-10-04T00:12:03.709Z,102375.47
2022-10-04T00:17:12.428Z,102373.56
2022-10-04T00:22:21.754Z,102364.69
2022-10-04T00:27:26.780Z,102362.56
2022-10-04T00:32:31.603Z,102350.81
2022-10-04T00:37:58.296Z,102353.94
2022-10-04T00:43:04.194Z,102350.34
2022-10-04T00:48:31.456Z,102355.59
2022-10-04T00:53:46.157Z,102359.06
2022-10-04T00:59:11.265Z,102344.91
2022-10-04T01:04:25.789Z,102345.81
2022-10-04T01:09:33.600Z,102333.44
2022-10-04T01:14:52.531Z,102337.50
2022-10-04T01:19:56.234Z,102332.75
2022-10-04T01:25:00.544Z,102334.91
2022-10-04T01:30:09.252Z,102343.41
2022-10-04T01:35:14.523Z,102324.78
2022-10-04T01:40:18.849Z,102304.38
2022-10-04T01:45:29.254Z,102282.75
2022-10-04T01:50:35.616Z,102279.84
2022-10-04T01:55:43.367Z,102275.91
2022-10-04T02:00:52.592Z,102279.78
2022-10-04T02:06:00.280Z,102271.63
2022-10-04T02:11:06.572Z,102257.25
2022-10-04T02:16:13.316Z,102237.56
2022-10-04T02:21:18.016Z,102223.16
2022-10-04T02:26:22.578Z,102222.03
2022-10-04T02:31:43.955Z,102205.88
2022-10-04T02:36:51.841Z,102204.69
2022-10-04T02:41:59.293Z,102206.22
2022-10-04T02:47:10.013Z,102187.47
2022-10-04T02:52:19.558Z,102184.63
2022-10-04T02:57:24.820Z,102173.75
2022-10-04T03:02:30.497Z,102163.81
2022-10-04T03:07:36.025Z,102161.91
2022-10-04T03:12:40.963Z,102159.84
2022-10-04T03:17:44.984Z,102165.88
2022-10-04T03:22:52.081Z,102154.94
2022-10-04T03:28:00.711Z,102140.75
2022-10-04T03:33:04.629Z,102130.81
2022-10-04T03:38:10.184Z,102139.28
2022-10-04T03:43:15.579Z,102147.09
2022-10-04T03:48:27.193Z,102149.56
2022-10-04T03:53:37.668Z,102132.63
2022-10-04T03:58:42.189Z,102124.56
2022-10-04T04:03:56.055Z,102128.69
2022-10-04T04:09:00.472Z,102121.53
2022-10-04T04:14:10.136Z,102122.97
2022-10-04T04:19:16.908Z,102127.34
2022-10-04T04:24:26.398Z,102112.94
2022-10-04T04:29:37.409Z,102112.84
2022-10-04T04:34:52.895Z,102119.75
2022-10-04T04:39:56.646Z,102112.59
2022-10-04T04:45:04.358Z,102106.25
2022-10-04T04:50:12.908Z,102114.88
2022-10-04T04:55:20.070Z,102115.72
2022-10-04T05:00:31.065Z,102119.22
2022-10-04T05:05:34.729Z,102125.50
2022-10-04T05:10:37.869Z,102118.34
2022-10-04T05:15:43.697Z,102111.16
2022-10-04T05:20:50.690Z,102112.75
2022-10-04T05:25:53.880Z,102128.41
2022-10-04T05:31:08.952Z,102130.13
2022-10-04T05:36:39.482Z,102130.97
2022-10-04T05:41:49.869Z,102136.13
2022-10-04T05:46:55.749Z,102134.31
2022-10-04T05:52:01.173Z,102135.25
2022-10-04T05:57:20.686Z,102124.50
2022-10-04T06:02:38.914Z,102124.34
2022-10-04T06:07:44.614Z,102117.25
2022-10-04T06:12:57.334Z,102116.34
2022-10-04T06:18:18.480Z,102116.28
2022-10-04T06:23:22.234Z,102105.59
2022-10-04T06:28:30.635Z,102096.63
2022-10-04T06:33:54.418Z,102109.56
2022-10-04T06:39:32.626Z,102112.13
2022-10-04T06:44:46.548Z,102106.78
2022-10-04T06:49:57.955Z,102094.47
2022-10-04T06:55:30.456Z,102095.38
2022-10-04T07:00:38.035Z,102094.56
2022-10-04T07:05:47.220Z,102079.16
2022-10-04T07:10:56.047Z,102087.28
2022-10-04T07:16:04.515Z,102100.69
2022-10-04T07:21:13.504Z,102092.28
2022-10-04T07:26:24.784Z,102087.38
2022-10-04T07:31:30.979Z,102091.22
2022-10-04T07:36:45.873Z,102084.66
2022-10-04T07:41:53.386Z,102088.78
2022-10-04T07:47:02.137Z,102085.03
2022-10-04T07:52:39.471Z,102097.19
2022-10-04T07:57:50.969Z,102102.38
2022-10-04T08:03:16.113Z,102096.88
2022-10-04T08:08:34.995Z,102092.97
2022-10-04T08:13:53.308Z,102102.44
2022-10-04T08:19:13.031Z,102096.97
2022-10-04T08:24:25.730Z,102095.94
2022-10-04T08:29:53.528Z,102102.97
2022-10-04T08:35:11.572Z,102094.88
2022-10-04T08:41:05.202Z,102101.81
2022-10-04T08:46:33.906Z,102105.47
2022-10-04T08:52:13.883Z,102100.22
2022-10-04T08:57:45.998Z,102090.66
2022-10-04T09:03:13.685Z,102090.47
2022-10-04T09:08:48.061Z,102082.13
2022-10-04T09:14:09.531Z,102084.91
2022-10-04T09:19:22.278Z,102091.50
2022-10-04T09:24:58.607Z,102081.66
2022-10-04T09:30:16.203Z,102079.84
2022-10-04T09:35:51.929Z,102075.22
2022-10-04T09:41:34.553Z,102078.09
2022-10-04T09:47:21.591Z,102082.09
2022-10-04T09:52:44.349Z,102070.00
2022-10-04T09:58:08.335Z,102055.41
2022-10-04T10:03:42.184Z,102054.38
2022-10-04T10:08:58.715Z,102045.44
2022-10-04T10:14:26.340Z,102045.88
2022-10-04T10:20:05.603Z,102044.41
2022-10-04T10:25:25.264Z,102067.00
2022-10-04T10:30:36.543Z,102057.81
2022-10-04T10:35:53.656Z,102055.06
2022-10-04T10:41:19.567Z,102047.16
2022-10-04T10:46:38.062Z,102029.94
2022-10-04T10:52:28.984Z,102025.19
2022-10-04T10:57:53.676Z,102025.84
2022-10-04T11:03:22.999Z,102029.72
2022-10-04T11:09:08.463Z,102000.28
2022-10-04T11:14:40.975Z,102013.66
2022-10-04T11:20:21.864Z,102011.00
2022-10-04T11:25:56.890Z,102007.75
2022-10-04T11:31:34.316Z,101999.81
2022-10-04T11:36:53.997Z,102000.63
2022-10-04T11:42:14.135Z,101994.91
2022-10-04T11:47:36.156Z,101996.59
2022-10-04T11:53:18.288Z,102003.22
2022-10-04T11:58:32.845Z,102004.91
2022-10-04T12:04:01.397Z,102003.47
2022-10-04T12:09:17.270Z,102009.97
2022-10-04T12:14:33.935Z,102001.94
2022-10-04T12:19:55.362Z,101980.69
2022-10-04T12:25:48.906Z,101970.94
2022-10-04T12:31:17.367Z,101976.28
2022-10-04T12:36:36.860Z,101965.66
2022-10-04T12:41:51.522Z,101958.72
2022-10-04T12:47:02.364Z,101943.63
2022-10-04T12:52:13.353Z,101947.19
2022-10-04T12:57:31.068Z,101933.03
2022-10-04T13:02:52.251Z,101935.06
2022-10-04T13:08:09.296Z,101921.88
2022-10-04T13:13:54.298Z,101918.34
2022-10-04T13:19:05.966Z,101933.50
2022-10-04T13:24:24.088Z,101929.06
2022-10-04T13:29:33.772Z,101922.88
2022-10-04T13:34:46.202Z,101901.59
2022-10-04T13:40:09.160Z,101880.31
2022-10-04T13:45:45.736Z,101872.41
2022-10-04T13:51:04.293Z,101857.38
2022-10-04T13:56:40.205Z,101859.19
2022-10-04T14:02:13.945Z,101858.38
2022-10-04T14:07:35.778Z,101837.91
2022-10-04T14:12:59.684Z,101825.50
2022-10-04T14:18:29.060Z,101823.72
2022-10-04T14:24:08.632Z,101833.53
2022-10-04T14:29:35.624Z,101838.00
2022-10-04T14:34:56.034Z,101830.81
2022-10-04T14:40:21.912Z,101824.50
2022-10-04T14:45:43.907Z,101830.84
2022-10-04T14:50:58.953Z,101832.59
2022-10-04T14:56:51.168Z,101836.06
2022-10-04T15:02:22.295Z,101853.78
2022-10-04T15:07:33.022Z,101851.94
2022-10-04T15:13:16.603Z,101849.25
2022-10-04T15:18:47.061Z,101857.25
2022-10-04T15:23:55.796Z,101844.75
2022-10-04T15:29:08.726Z,101846.38
2022-10-04T15:34:33.737Z,101840.03
2022-10-04T15:40:10.835Z,101834.66
2022-10-04T15:45:50.971Z,101838.97
2022-10-04T15:51:06.431Z,101832.63
2022-10-04T15:56:24.892Z,101826.47
2022-10-04T16:01:46.000Z,101822.00
2022-10-04T16:06:56.326Z,101829.88
2022-10-04T16:12:07.328Z,101838.59
2022-10-04T16:17:30.636Z,101850.06
2022-10-04T16:22:38.342Z,101855.19
2022-10-04T16:27:49.390Z,101859.44
2022-10-04T16:33:07.260Z,101855.69
2022-10-04T16:38:24.741Z,101851.88
2022-10-04T16:43:30.891Z,101855.31
2022-10-04T16:48:47.468Z,101863.84
2022-10-04T16:53:59.473Z,101857.41
2022-10-04T16:59:04.249Z,101854.56
2022-10-04T17:04:39.287Z,101859.78
2022-10-04T17:09:49.900Z,101848.97
2022-10-04T17:15:21.016Z,101863.06
2022-10-04T17:20:31.806Z,101862.94
2022-10-04T17:25:45.571Z,101865.53
2022-10-04T17:30:57.263Z,101869.84
2022-10-04T17:36:20.057Z,101864.44
2022-10-04T17:41:42.176Z,101867.81
2022-10-04T17:46:51.397Z,101872.94
2022-10-04T17:52:15.097Z,101862.22
2022-10-04T17:57:30.752Z,101872.75
2022-10-04T18:02:50.329Z,101851.25
2022-10-04T18:07:57.800Z,101848.59
2022-10-04T18:13:07.178Z,101846.69
2022-10-04T18:18:18.843Z,101846.56
2022-10-04T18:23:27.328Z,101846.47
2022-10-04T18:28:34.797Z,101848.97
2022-10-04T18:33:50.138Z,101843.56
2022-10-04T18:39:17.604Z,101840.72
2022-10-04T18:44:28.815Z,101847.81
2022-10-04T18:49:46.054Z,101845.00
2022-10-04T18:55:02.776Z,101843.09
2022-10-04T19:00:41.696Z,101850.94
2022-10-04T19:05:52.234Z,101843.78
2022-10-04T19:11:03.429Z,101823.31
2022-10-04T19:16:25.941Z,101810.84
2022-10-04T19:21:36.855Z,101813.38
2022-10-04T19:26:42.166Z,101803.53
2022-10-04T19:31:55.764Z,101806.97
2022-10-04T19:37:02.690Z,101795.25
2022-10-04T19:42:12.764Z,101798.75
2022-10-04T19:47:35.263Z,101792.44
2022-10-04T19:52:46.749Z,101791.44
2022-10-04T19:57:53.587Z,101795.84
2022-10-04T20:02:58.003Z,101804.63
2022-10-04T20:08:05.157Z,101808.06
2022-10-04T20:13:21.194Z,101825.72
2022-10-04T20:18:58.647Z,101803.38
2022-10-04T20:24:01.762Z,101805.06
2022-10-04T20:29:04.911Z,101808.47
2022-10-04T20:34:49.263Z,101804.03
2022-10-04T20:40:01.208Z,101803.06
2022-10-04T20:45:22.138Z,101810.00
2022-10-04T20:50:49.713Z,101813.47
2022-10-04T20:56:09.099Z,101815.22
2022-10-04T21:01:40.805Z,101818.63
2022-10-04T21:06:55.249Z,101810.50
2022-10-04T21:11:59.345Z,101824.69
2022-10-04T21:17:03.421Z,101824.69
2022-10-04T21:22:08.712Z,101831.72
2022-10-04T21:27:16.156Z,101844.06
2022-10-04T21:32:19.415Z,101833.44
2022-10-04T21:37:23.844Z,101838.75
2022-10-04T21:42:26.802Z,101825.31
2022-10-04T21:47:29.682Z,101826.22
2022-10-04T21:52:34.047Z,101822.66
2022-10-04T21:57:37.088Z,101828.78
2022-10-04T22:02:41.116Z,101832.25
2022-10-04T22:07:45.683Z,101818.03
2022-10-04T22:12:48.546Z,101812.69
2022-10-04T22:17:51.439Z,101795.88
2022-10-04T22:22:57.595Z,101786.16
2022-10-04T22:28:01.271Z,101775.47
2022-10-04T22:33:04.420Z,101782.38
2022-10-04T22:38:10.660Z,101769.94
2022-10-04T22:43:15.342Z,101780.44
2022-10-04T22:48:20.480Z,101784.81
2022-10-04T22:53:25.079Z,101787.44
2022-10-04T22:58:28.038Z,101774.00
2022-10-04T23:03:32.307Z,101770.50
2022-10-04T23:08:36.736Z,101765.16
2022-10-04T23:13:39.799Z,101758.03
2022-10-04T23:18:42.761Z,101755.34
2022-10-04T23:23:48.065Z,101757.94
2022-10-04T23:28:51.093Z,101761.44
2022-10-04T23:33:56.538Z,101749.97
2022-10-04T23:39:02.873Z,101758.72
2022-10-04T23:44:43.361Z,101758.66
2022-10-04T23:50:33.140Z,101748.97
2022-10-04T23:55:39.951Z,101748.94
